This is the latest recevied weather packets stored in our database for station/object VE7PRT-1. If no packets are shown the sender has not sent any weather packets the latest 10 day(s).
| Time | Temp. | Humidity | Pressure | Rain* | Wind** | Luminosity | Snow |
|---|---|---|---|---|---|---|---|
| 1777875549 | 13.89° C | 90% | 1009.3 hPa | 0 mm | - | - | - |
| 1777874794 | 13.89° C | 89% | 1009.4 hPa | 0 mm | - | - | - |
| 1777873920 | 14.44° C | 88% | 1009.4 hPa | 0 mm | - | - | - |
| 1777873079 | 14.44° C | 86% | 1009.7 hPa | 0 mm | - | - | - |
| 1777872354 | 14.44° C | 85% | 1009.7 hPa | 0 mm | - | - | - |
| 1777871544 | 15° C | 84% | 1009.8 hPa | 0 mm | - | - | - |
| 1777870659 | 15.56° C | 82% | 1009.8 hPa | 0 mm | - | - | - |
| 1777869784 | 16.11° C | 81% | 1009.8 hPa | 0 mm | - | - | - |
| 1777868928 | 16.67° C | 79% | 1009.8 hPa | 0 mm | - | - | - |
| 1777868119 | 17.22° C | 76% | 1009.8 hPa | 0 mm | - | - | - |
| 1777867307 | 17.78° C | 75% | 1009.8 hPa | 0 mm | - | - | - |
| 1777866557 | 19.44° C | 65% | 1009.7 hPa | 0 mm | - | - | - |
| 1777865730 | 19.44° C | 65% | 1009.7 hPa | 0 mm | - | - | - |
| 1777864893 | 20.56° C | 61% | 1009.8 hPa | 0 mm | - | - | - |
| 1777864047 | 20.56° C | 59% | 1009.9 hPa | 0 mm | - | - | - |
| 1777863234 | 21.11° C | 57% | 1010 hPa | 0 mm | - | - | - |
| 1777862439 | 21.11° C | 55% | 1010.2 hPa | 0 mm | - | - | - |
| 1777861685 | 21.67° C | 54% | 1010.2 hPa | 0 mm | - | - | - |
| 1777860879 | 21.67° C | 52% | 1010.4 hPa | 0 mm | - | - | - |
| 1777860019 | 22.22° C | 50% | 1010.5 hPa | 0 mm | - | - | - |
| 1777859214 | 22.22° C | 48% | 1010.6 hPa | 0 mm | - | - | - |
| 1777858464 | 22.78° C | 47% | 1010.8 hPa | 0 mm | - | - | - |
| 1777857744 | 23.89° C | 46% | 1010.9 hPa | 0 mm | - | - | - |
| 1777856859 | 24.44° C | 45% | 1011.1 hPa | 0 mm | - | - | - |
| 1777856094 | 24.44° C | 43% | 1011.2 hPa | 0 mm | - | - | - |
* Rain latest hour (hover to see other rain measurements)
** Current wind speed in m/s (hover to see current wind gust speed)